Time;durP1;ratioP1;P1;durP2;ratioP2;P2;SDS_P1;SDS_P2;PMS_P1;PMS_P2;Temp;Humidity;BMP_temperature;BMP_pressure;BME280_temperature;BME280_humidity;BME280_pressure;Samples;Min_cycle;Max_cycle;Signal;HPM_P1;HPM_P2
2022/04/18 00:08:15;;;;;;;5.57;3.57;;;9.80;51.80;;;;;;21151668;28;20236;-65
2022/04/18 00:18:17;;;;;;;11.83;4.90;;;9.60;53.00;;;;;;21169030;28;20206;-66
2022/04/18 00:28:19;;;;;;;12.63;5.67;;;9.50;54.10;;;;;;21168618;28;20243;-65
2022/04/18 00:38:21;;;;;;;26.07;10.00;;;9.20;54.20;;;;;;21166445;28;20217;-67
2022/04/18 00:48:23;;;;;;;12.93;6.20;;;9.00;54.80;;;;;;21166233;28;20239;-67
2022/04/18 00:58:24;;;;;;;55.33;20.43;;;8.90;55.50;;;;;;21166251;28;20207;-65
2022/04/18 01:08:29;;;;;;;6.83;4.03;;;8.70;55.80;;;;;;21171836;28;20240;-64
2022/04/18 01:18:30;;;;;;;7.27;4.17;;;8.60;55.90;;;;;;21164667;28;20681;-65
2022/04/18 01:38:53;;;;;;;69.00;23.20;;;8.50;56.60;;;;;;21163702;28;20214;-65
2022/04/18 01:48:54;;;;;;;60.80;18.07;;;8.10;57.80;;;;;;21166417;28;20257;-68
2022/04/18 01:58:56;;;;;;;10.80;6.10;;;8.10;58.30;;;;;;21177609;28;20281;-65
2022/04/18 02:08:58;;;;;;;30.03;11.80;;;7.80;58.30;;;;;;21165235;28;20229;-68
2022/04/18 02:19:00;;;;;;;14.67;7.40;;;7.80;58.60;;;;;;21161860;28;20654;-65
2022/04/18 02:29:02;;;;;;;5.43;3.30;;;7.70;59.20;;;;;;21161882;28;20230;-67
2022/04/18 02:39:03;;;;;;;5.70;3.60;;;7.50;60.00;;;;;;21162492;28;20609;-66
2022/04/18 02:49:05;;;;;;;29.37;9.27;;;7.40;60.00;;;;;;21163841;28;20314;-67
2022/04/18 02:59:07;;;;;;;7.87;4.27;;;7.10;60.30;;;;;;21180619;28;20203;-66
2022/04/18 03:09:08;;;;;;;4.83;3.60;;;7.10;61.00;;;;;;21180500;28;20229;-67
2022/04/18 03:19:10;;;;;;;4.90;3.10;;;7.10;61.20;;;;;;21178811;28;20293;-65
2022/04/18 03:29:12;;;;;;;8.37;3.30;;;6.80;61.90;;;;;;21174017;28;20234;-66
2022/04/18 03:49:34;;;;;;;4.07;3.00;;;6.60;63.00;;;;;;21171259;28;20704;-65
2022/04/18 03:59:36;;;;;;;5.40;3.40;;;6.50;63.30;;;;;;21171081;28;20202;-66
2022/04/18 04:09:38;;;;;;;6.73;3.70;;;6.50;63.70;;;;;;21170155;28;20234;-66
2022/04/18 04:19:40;;;;;;;4.83;3.30;;;6.50;64.20;;;;;;21169108;28;20198;-67
2022/04/18 04:29:41;;;;;;;4.53;3.20;;;6.40;64.20;;;;;;21150151;28;20244;-67
2022/04/18 04:39:43;;;;;;;4.23;3.33;;;6.40;64.80;;;;;;21167707;28;20197;-66
2022/04/18 04:49:45;;;;;;;6.70;3.00;;;6.40;64.80;;;;;;21166123;28;20715;-66
2022/04/18 04:59:46;;;;;;;4.73;3.20;;;6.30;65.00;;;;;;21166131;28;20209;-67
2022/04/18 05:09:48;;;;;;;8.40;5.20;;;6.40;65.80;;;;;;21165630;28;20236;-66
2022/04/18 05:19:50;;;;;;;5.83;3.37;;;;;;;;;;21164032;28;20679;-67
2022/04/18 05:29:52;;;;;;;5.23;3.47;;;6.80;65.60;;;;;;21164613;28;20236;-66
2022/04/18 05:39:54;;;;;;;6.43;3.47;;;7.00;65.60;;;;;;21164510;28;20206;-67
2022/04/18 05:49:56;;;;;;;5.33;3.43;;;7.20;65.30;;;;;;21178297;28;20245;-66
2022/04/18 05:59:57;;;;;;;6.13;4.80;;;7.60;65.30;;;;;;21164367;28;20211;-66
2022/04/18 06:09:59;;;;;;;5.30;3.63;;;7.70;65.90;;;;;;21163125;28;20235;-66
2022/04/18 06:20:05;;;;;;;6.07;3.50;;;8.00;64.80;;;;;;21162256;28;20199;-65
2022/04/18 06:30:07;;;;;;;7.50;3.30;;;8.70;64.20;;;;;;21164722;28;20274;-67
2022/04/18 06:40:09;;;;;;;5.47;3.73;;;8.90;63.60;;;;;;21178430;28;20206;-66
2022/04/18 06:50:12;;;;;;;6.43;3.80;;;9.10;63.70;;;;;;21177308;28;20241;-68
2022/04/18 07:00:14;;;;;;;7.13;3.67;;;9.90;61.70;;;;;;21177761;28;20208;-66
2022/04/18 07:10:16;;;;;;;4.27;3.37;;;10.00;60.80;;;;;;21175843;28;20242;-66
2022/04/18 07:20:18;;;;;;;4.47;3.60;;;10.70;58.70;;;;;;21175811;28;20207;-67
2022/04/18 07:30:20;;;;;;;5.33;3.30;;;11.10;58.00;;;;;;21175264;28;20240;-68
2022/04/18 07:40:22;;;;;;;4.07;3.13;;;11.50;56.90;;;;;;21185213;28;20213;-67
2022/04/18 07:51:31;;;;;;;3.50;2.97;;;11.50;56.40;;;;;;21182452;28;20580;-67
2022/04/18 08:00:45;;;;;;;5.20;2.93;;;12.10;54.60;;;;;;21177113;28;20711;-66
2022/04/18 08:10:47;;;;;;;4.93;3.10;;;12.20;54.70;;;;;;21186199;28;20235;-67
2022/04/18 08:20:49;;;;;;;4.40;3.13;;;12.40;53.80;;;;;;21174643;28;20212;-67
2022/04/18 08:30:51;;;;;;;4.03;2.90;;;12.90;51.90;;;;;;21176629;28;20257;-67
2022/04/18 08:40:56;;;;;;;5.50;2.87;;;13.00;51.10;;;;;;21168584;28;20648;-66
2022/04/18 09:01:22;;;;;;;4.03;2.60;;;13.60;47.40;;;;;;21165914;28;20679;-69
2022/04/18 09:11:36;;;;;;;4.47;3.03;;;13.60;47.70;;;;;;21165887;28;20635;-68
2022/04/18 09:21:42;;;;;;;3.70;2.70;;;13.80;46.50;;;;;;21164831;28;20213;-67
2022/04/18 09:31:43;;;;;;;4.60;2.90;;;14.10;45.00;;;;;;21163908;28;20267;-67
2022/04/18 09:41:45;;;;;;;6.27;3.07;;;14.30;45.10;;;;;;21163778;28;20576;-67
2022/04/18 09:51:47;;;;;;;4.97;2.50;;;14.50;43.50;;;;;;21162854;28;20593;-68
2022/04/18 10:01:49;;;;;;;3.37;2.40;;;14.60;43.10;;;;;;21162672;28;20213;-68
2022/04/18 10:11:52;;;;;;;2.73;2.30;;;14.70;43.90;;;;;;21179406;28;20596;-68
2022/04/18 10:22:27;;;;;;;4.13;2.83;;;14.80;42.60;;;;;;21185540;28;20202;-69
2022/04/18 10:32:29;;;;;;;2.80;2.47;;;14.80;43.00;;;;;;21167585;28;20317;-67
2022/04/18 10:42:35;;;;;;;4.80;2.60;;;15.10;41.60;;;;;;21177282;28;20210;-68
2022/04/18 10:52:36;;;;;;;3.33;2.40;;;15.10;42.10;;;;;;21176829;28;20238;-68
2022/04/18 11:02:44;;;;;;;5.00;2.27;;;15.30;42.00;;;;;;21175560;28;20205;-68
2022/04/18 11:12:45;;;;;;;4.50;2.00;;;15.60;41.00;;;;;;21174745;28;20325;-69
2022/04/18 11:23:18;;;;;;;4.03;2.20;;;15.60;41.20;;;;;;21173667;28;20209;-67
2022/04/18 11:33:20;;;;;;;4.07;2.00;;;15.70;39.80;;;;;;21173134;28;20264;-65
2022/04/18 11:43:22;;;;;;;6.20;1.80;;;16.00;39.20;;;;;;21173401;28;20235;-67
2022/04/18 11:53:31;;;;;;;3.10;1.83;;;16.00;39.70;;;;;;21171664;28;20252;-68
2022/04/18 12:13:53;;;;;;;2.70;1.70;;;16.80;38.00;;;;;;21170107;28;20236;-67
2022/04/18 12:23:56;;;;;;;2.00;1.63;;;17.00;38.10;;;;;;21201904;28;20202;-68
2022/04/18 12:33:59;;;;;;;2.33;1.77;;;17.30;37.50;;;;;;21183366;28;20289;-68
2022/04/18 12:44:08;;;;;;;3.97;1.57;;;17.50;37.10;;;;;;21168438;28;20210;-68
2022/04/18 12:54:24;;;;;;;2.63;1.50;;;17.70;36.40;;;;;;21167335;28;20257;-69
2022/04/18 13:04:26;;;;;;;2.57;1.53;;;17.80;36.00;;;;;;21169985;28;20564;-67
2022/04/18 13:14:28;;;;;;;2.53;1.60;;;18.00;35.70;;;;;;21156616;28;20230;-68
2022/04/18 13:24:30;;;;;;;2.43;1.70;;;18.10;35.00;;;;;;21168503;28;20206;-68
2022/04/18 13:34:32;;;;;;;2.13;1.43;;;18.10;35.40;;;;;;21162946;28;20585;-69
2022/04/18 13:44:33;;;;;;;1.73;1.33;;;18.80;38.10;;;;;;21164358;28;20203;-69
2022/04/18 13:54:37;;;;;;;2.07;1.33;;;20.60;34.70;;;;;;21144881;28;20252;-70
2022/04/18 14:04:39;;;;;;;3.50;1.42;;;24.30;32.30;;;;;;21145310;28;20529;-70
2022/04/18 14:25:02;;;;;;;1.52;1.20;;;31.60;27.40;;;;;;21177097;28;20284;-70
2022/04/18 14:35:04;;;;;;;2.40;1.42;;;31.80;25.50;;;;;;21159838;28;20328;-71
2022/04/18 14:45:07;;;;;;;5.78;1.38;;;31.40;24.30;;;;;;21161101;28;20642;-69
2022/04/18 14:55:09;;;;;;;2.10;1.27;;;32.20;23.60;;;;;;21170264;28;20233;-70
2022/04/18 15:05:11;;;;;;;3.50;1.33;;;32.20;24.00;;;;;;21157487;28;20210;-70
2022/04/18 15:15:13;;;;;;;8.23;2.28;;;32.30;23.90;;;;;;21174154;28;20234;-68
2022/04/18 15:25:14;;;;;;;3.63;1.52;;;28.70;24.70;;;;;;21173739;28;20283;-71
2022/04/18 15:35:16;;;;;;;13.33;2.33;;;24.70;26.50;;;;;;21173096;28;20697;-71
2022/04/18 15:45:18;;;;;;;1.87;1.30;;;24.00;26.50;;;;;;21170487;28;20424;-71
2022/04/18 15:55:20;;;;;;;3.10;1.17;;;24.00;25.70;;;;;;21170884;28;20292;-70
2022/04/18 16:05:22;;;;;;;2.97;1.10;;;26.80;24.80;;;;;;21169723;28;20198;-70
2022/04/18 16:15:23;;;;;;;1.30;1.20;;;26.80;25.50;;;;;;21169568;28;20232;-68
2022/04/18 16:25:25;;;;;;;2.00;1.17;;;26.00;24.70;;;;;;21150206;28;20202;-71
2022/04/18 16:35:28;;;;;;;1.57;1.40;;;24.10;25.40;;;;;;21168050;28;20233;-70
2022/04/18 16:55:50;;;;;;;1.53;1.30;;;25.10;25.00;;;;;;21165844;28;20320;-70
2022/04/18 17:05:52;;;;;;;1.53;1.27;;;24.30;25.20;;;;;;21165494;28;20206;-69
2022/04/18 17:15:54;;;;;;;1.70;1.23;;;21.70;26.20;;;;;;21163664;28;20236;-70
2022/04/18 17:25:56;;;;;;;2.07;1.27;;;20.00;26.60;;;;;;21198829;27;20208;-65
2022/04/18 17:35:58;;;;;;;1.60;1.30;;;19.40;27.40;;;;;;21245700;27;20338;-66
2022/04/18 17:46:00;;;;;;;2.00;1.43;;;18.60;27.80;;;;;;21198322;27;20577;-70
2022/04/18 17:56:02;;;;;;;1.50;1.40;;;18.30;28.50;;;;;;21241415;27;20579;-64
2022/04/18 18:06:03;;;;;;;3.07;2.20;;;17.80;28.60;;;;;;21172155;28;20205;-65
2022/04/18 18:16:05;;;;;;;2.47;2.20;;;17.60;29.60;;;;;;21200504;28;20240;-67
2022/04/18 18:26:07;;;;;;;3.30;2.47;;;17.10;30.50;;;;;;21248740;27;20201;-70
2022/04/18 18:36:09;;;;;;;3.50;2.27;;;16.80;31.70;;;;;;21262927;27;20241;-69
2022/04/18 18:46:11;;;;;;;3.50;2.60;;;16.20;32.70;;;;;;21208814;27;20208;-63
2022/04/18 18:56:13;;;;;;;5.30;4.13;;;16.00;34.60;;;;;;21210153;27;20262;-65
2022/04/18 19:06:14;;;;;;;7.10;4.10;;;15.70;35.40;;;;;;21219903;27;20538;-64
2022/04/18 19:16:16;;;;;;;5.80;3.80;;;15.40;37.40;;;;;;21257642;27;20229;-64
2022/04/18 19:26:21;;;;;;;5.30;3.20;;;14.80;38.90;;;;;;21180980;27;20470;-69
2022/04/18 19:36:23;;;;;;;5.30;3.93;;;15.10;41.00;;;;;;21170368;28;20239;-65
2022/04/18 19:46:26;;;;;;;7.37;3.73;;;14.10;40.60;;;;;;21169950;28;20282;-62
2022/04/18 19:56:31;;;;;;;5.97;3.73;;;14.00;41.20;;;;;;21206681;27;20240;-63
2022/04/18 20:06:32;;;;;;;7.60;3.43;;;13.60;42.20;;;;;;21235369;27;20203;-63
2022/04/18 20:16:34;;;;;;;5.00;3.33;;;13.40;43.20;;;;;;21252254;27;20225;-66
2022/04/18 20:26:36;;;;;;;11.53;6.33;;;13.00;44.10;;;;;;21251526;27;20235;-68
2022/04/18 20:36:38;;;;;;;6.00;3.13;;;12.80;44.70;;;;;;21250611;27;20237;-68
2022/04/18 20:46:40;;;;;;;8.90;3.30;;;12.80;44.90;;;;;;21229203;27;20244;-66
2022/04/18 21:07:03;;;;;;;6.37;3.13;;;12.80;46.10;;;;;;21163082;28;20216;-68
2022/04/18 21:17:05;;;;;;;6.77;3.27;;;12.50;46.60;;;;;;21162395;28;20715;-64
2022/04/18 21:27:07;;;;;;;4.13;2.77;;;12.10;46.90;;;;;;21162126;28;20609;-68
2022/04/18 21:37:09;;;;;;;4.67;2.97;;;12.00;47.50;;;;;;21162178;28;20279;-67
2022/04/18 21:47:11;;;;;;;4.80;3.03;;;11.80;48.00;;;;;;21161933;28;20654;-68
2022/04/18 21:57:13;;;;;;;5.57;3.10;;;11.80;48.90;;;;;;21145274;28;20230;-70
2022/04/18 22:07:18;;;;;;;6.50;3.20;;;11.80;49.30;;;;;;21144344;28;20214;-68
2022/04/18 22:17:19;;;;;;;4.80;3.03;;;11.70;49.90;;;;;;21161835;28;20240;-65
2022/04/18 22:27:22;;;;;;;6.10;2.90;;;11.70;50.80;;;;;;21161729;28;20285;-63
2022/04/18 22:37:25;;;;;;;4.40;3.20;;;11.70;51.60;;;;;;21161739;28;20598;-64
2022/04/18 22:47:27;;;;;;;6.67;3.03;;;11.50;51.70;;;;;;21161022;28;20227;-64
2022/04/18 22:57:29;;;;;;;6.03;3.10;;;11.30;51.90;;;;;;21162517;28;20636;-65
2022/04/18 23:07:36;;;;;;;4.97;3.30;;;11.20;52.40;;;;;;21163252;28;20210;-62
2022/04/18 23:17:40;;;;;;;7.70;3.23;;;10.90;52.30;;;;;;21171042;28;20588;-64
2022/04/18 23:27:43;;;;;;;9.43;3.80;;;10.70;52.60;;;;;;21173946;28;20214;-62
2022/04/18 23:37:44;;;;;;;5.37;3.43;;;10.70;53.20;;;;;;21173771;28;20230;-64
2022/04/18 23:47:46;;;;;;;5.43;3.40;;;10.60;53.80;;;;;;21178100;28;20228;-67
2022/04/18 23:57:49;;;;;;;6.37;3.40;;;10.40;54.50;;;;;;21181685;28;20228;-67
